Time;durP1;ratioP1;P1;durP2;ratioP2;P2;SDS_P1;SDS_P2;PMS_P1;PMS_P2;Temp;Humidity;BMP_temperature;BMP_pressure;BME280_temperature;BME280_humidity;BME280_pressure;Samples;Min_cycle;Max_cycle;Signal;HPM_P1;HPM_P2
2022/01/01 00:00:28;;;;;;;23.10;7.82;;;;;;;;;;5052900;28;20120;-92
2022/01/01 00:02:53;;;;;;;28.17;8.52;;;;;;;;;;5053060;28;20031;-92
2022/01/01 00:05:18;;;;;;;29.83;8.82;;;;;;;;;;5053067;28;20115;-93
2022/01/01 00:07:44;;;;;;;25.63;8.32;;;;;;;;;;5053087;28;20468;-92
2022/01/01 00:10:09;;;;;;;26.70;8.57;;;;;;;;;;5053038;28;20025;-92
2022/01/01 00:12:35;;;;;;;27.48;8.05;;;;;;;;;;5053015;28;20021;-92
2022/01/01 00:15:00;;;;;;;23.40;8.40;;;;;;;;;;5053081;28;20021;-93
2022/01/01 00:17:26;;;;;;;22.48;7.70;;;;;;;;;;5052624;28;20052;-92
2022/01/01 00:19:51;;;;;;;27.63;7.03;;;;;;;;;;5053033;28;20033;-91
2022/01/01 00:22:16;;;;;;;22.42;7.45;;;;;;;;;;5052997;28;20025;-92
2022/01/01 00:24:42;;;;;;;23.55;7.28;;;;;;;;;;5052922;28;20028;-93
2022/01/01 00:27:07;;;;;;;18.33;7.15;;;;;;;;;;5052767;28;20041;-93
2022/01/01 00:29:32;;;;;;;31.80;8.02;;;;;;;;;;5052510;28;20119;-92
2022/01/01 00:31:57;;;;;;;18.15;8.05;;;;;;;;;;5052827;28;20021;-92
2022/01/01 00:34:22;;;;;;;25.98;7.68;;;;;;;;;;5052818;28;20013;-92
2022/01/01 00:36:48;;;;;;;21.77;6.63;;;;;;;;;;5052737;28;20021;-93
2022/01/01 00:39:13;;;;;;;26.20;8.10;;;;;;;;;;5052837;28;20025;-92
2022/01/01 00:41:38;;;;;;;23.92;7.63;;;;;;;;;;5052487;28;20025;-92
2022/01/01 00:44:04;;;;;;;19.75;7.40;;;;;;;;;;5052891;28;20380;-92
2022/01/01 00:46:29;;;;;;;25.27;8.05;;;;;;;;;;5052700;28;20028;-92
2022/01/01 00:48:54;;;;;;;22.33;9.00;;;;;;;;;;5052641;28;20021;-93
2022/01/01 00:51:20;;;;;;;25.73;8.90;;;;;;;;;;5052746;28;20044;-92
2022/01/01 00:53:45;;;;;;;26.83;8.82;;;;;;;;;;5052566;28;20025;-93
2022/01/01 00:56:11;;;;;;;29.55;9.25;;;;;;;;;;5054396;28;20009;-93
2022/01/01 00:58:36;;;;;;;29.55;9.35;;;;;;;;;;5056142;28;20021;-92
2022/01/01 01:01:01;;;;;;;27.80;8.43;;;;;;;;;;5090107;28;20041;-92
2022/01/01 01:03:26;;;;;;;20.88;8.30;;;;;;;;;;5089940;28;20024;-93
2022/01/01 01:05:51;;;;;;;23.70;7.97;;;;;;;;;;5090119;28;20043;-92
2022/01/01 01:08:17;;;;;;;21.55;8.45;;;;;;;;;;5089854;28;20052;-92
2022/01/01 01:10:45;;;;;;;16.92;7.82;;;;;;;;;;5089730;28;20100;-92
2022/01/01 01:13:12;;;;;;;22.27;7.75;;;;;;;;;;5089704;28;20013;-92
2022/01/01 01:15:38;;;;;;;18.67;7.28;;;;;;;;;;5089564;28;20024;-93
2022/01/01 01:18:04;;;;;;;16.92;8.00;;;;;;;;;;5089719;28;20017;-92
2022/01/01 01:20:29;;;;;;;20.88;8.38;;;;;;;;;;5089694;28;20115;-92
2022/01/01 01:22:55;;;;;;;20.60;7.70;;;;;;;;;;5098670;28;20052;-92
2022/01/01 01:25:22;;;;;;;23.88;8.05;;;;;;;;;;5076056;28;20541;-92
2022/01/01 01:27:49;;;;;;;24.85;7.60;;;;;;;;;;5075810;28;20028;-93
2022/01/01 01:30:16;;;;;;;18.08;7.55;;;;;;;;;;5075737;28;20040;-93
2022/01/01 01:32:41;;;;;;;30.00;8.05;;;;;;;;;;5075667;28;20030;-93
2022/01/01 01:35:07;;;;;;;24.98;8.43;;;;;;;;;;5075828;28;20077;-92
2022/01/01 01:37:32;;;;;;;19.17;7.68;;;;;;;;;;5075743;28;20022;-93
2022/01/01 01:39:58;;;;;;;26.67;7.97;;;;;;;;;;5075723;28;20050;-92
2022/01/01 01:42:25;;;;;;;23.75;7.80;;;;;;;;;;5075699;28;20028;-93
2022/01/01 01:44:53;;;;;;;17.55;7.72;;;;;;;;;;5075540;28;20048;-92
2022/01/01 01:47:27;;;;;;;19.15;7.45;;;;;;;;;;5075634;28;20028;-93
2022/01/01 01:49:52;;;;;;;29.80;7.68;;;;;;;;;;5075647;28;20031;-92
2022/01/01 01:52:19;;;;;;;19.10;7.22;;;;;;;;;;5058619;28;20025;-93
2022/01/01 01:54:45;;;;;;;22.23;7.22;;;;;;;;;;5055386;28;20013;-92
2022/01/01 01:57:10;;;;;;;28.10;7.88;;;;;;;;;;5055258;28;20039;-92
2022/01/01 01:59:35;;;;;;;27.13;7.68;;;;;;;;;;5055263;28;20024;-92
2022/01/01 02:02:00;;;;;;;25.40;7.55;;;;;;;;;;5055440;28;20025;-92
2022/01/01 02:04:26;;;;;;;21.15;7.70;;;;;;;;;;5055253;28;20415;-92
2022/01/01 02:06:51;;;;;;;21.83;6.95;;;;;;;;;;5054114;28;20021;-93
2022/01/01 02:09:16;;;;;;;19.50;7.72;;;;;;;;;;5054776;28;20107;-92
2022/01/01 02:11:41;;;;;;;16.85;7.15;;;;;;;;;;5055010;28;20059;-93
2022/01/01 02:19:28;;;;;;;21.25;7.32;;;;;;;;;;5055809;28;20032;-93
2022/01/01 02:21:55;;;;;;;17.98;6.68;;;;;;;;;;5105159;28;20074;-92
2022/01/01 02:24:20;;;;;;;17.77;6.93;;;;;;;;;;5074825;28;20463;-92
2022/01/01 02:26:46;;;;;;;28.10;7.50;;;;;;;;;;5074609;28;20077;-92
2022/01/01 02:29:11;;;;;;;20.90;6.45;;;;;;;;;;5074721;28;20020;-92
2022/01/01 02:31:36;;;;;;;22.35;6.88;;;;;;;;;;5074730;28;20017;-92
2022/01/01 02:34:02;;;;;;;17.05;6.10;;;;;;;;;;5074569;28;20012;-92
2022/01/01 02:36:36;;;;;;;16.85;6.40;;;;;;;;;;5074670;28;20361;-92
2022/01/01 02:39:08;;;;;;;21.25;6.85;;;;;;;;;;5074522;28;20016;-93
2022/01/01 02:41:33;;;;;;;;;;;;;;;;;;5074927;28;20089;-93
2022/01/01 02:43:59;;;;;;;20.83;7.47;;;;;;;;;;5074424;28;19905;-92
2022/01/01 02:46:24;;;;;;;23.83;6.93;;;;;;;;;;5064727;28;20312;-92
2022/01/01 02:48:49;;;;;;;39.13;7.63;;;;;;;;;;5054289;28;20021;-93
2022/01/01 02:51:14;;;;;;;21.48;7.40;;;;;;;;;;5054146;28;20028;-93
2022/01/01 02:53:40;;;;;;;26.17;8.45;;;;;;;;;;5054316;28;20108;-93
2022/01/01 02:56:05;;;;;;;30.92;7.78;;;;;;;;;;5053941;28;20078;-92
2022/01/01 02:58:31;;;;;;;20.27;7.45;;;;;;;;;;5054088;28;20013;-93
2022/01/01 03:00:56;;;;;;;24.75;8.25;;;;;;;;;;5054160;28;20021;-93
2022/01/01 03:03:21;;;;;;;21.80;7.50;;;;;;;;;;5054202;28;20420;-93
2022/01/01 03:05:46;;;;;;;22.23;7.70;;;;;;;;;;5053770;28;20052;-93
2022/01/01 03:08:11;;;;;;;23.83;7.78;;;;;;;;;;5055142;28;20027;-93
2022/01/01 03:10:37;;;;;;;21.20;8.70;;;;;;;;;;5053862;28;20021;-93
2022/01/01 03:13:02;;;;;;;24.60;8.05;;;;;;;;;;5053850;28;20056;-92
2022/01/01 03:15:27;;;;;;;20.60;7.45;;;;;;;;;;5053965;28;20013;-92
2022/01/01 03:17:52;;;;;;;18.58;7.10;;;;;;;;;;5054537;28;20067;-93
2022/01/01 03:20:17;;;;;;;25.10;7.47;;;;;;;;;;5053624;28;20025;-92
2022/01/01 03:22:43;;;;;;;16.70;7.70;;;;;;;;;;5053752;28;20051;-92
2022/01/01 03:25:08;;;;;;;16.25;6.55;;;;;;;;;;5053693;28;20036;-92
2022/01/01 03:27:33;;;;;;;29.30;7.90;;;;;;;;;;5053646;28;20035;-92
2022/01/01 03:29:58;;;;;;;26.73;7.65;;;;;;;;;;5053570;28;20043;-92
2022/01/01 03:32:24;;;;;;;23.73;7.45;;;;;;;;;;5053623;28;20499;-92
2022/01/01 03:34:51;;;;;;;21.63;7.15;;;;;;;;;;5053473;28;20020;-92
2022/01/01 03:37:16;;;;;;;23.65;7.90;;;;;;;;;;5053490;28;20013;-92
2022/01/01 03:39:41;;;;;;;24.65;7.35;;;;;;;;;;5053548;28;20025;-92
2022/01/01 03:42:07;;;;;;;24.73;7.25;;;;;;;;;;5054493;28;20483;-92
2022/01/01 03:44:32;;;;;;;20.05;7.75;;;;;;;;;;5053198;28;20498;-92
2022/01/01 03:47:08;;;;;;;19.20;7.20;;;;;;;;;;5053419;28;20027;-92
2022/01/01 03:49:34;;;;;;;21.02;8.15;;;;;;;;;;5053303;28;20071;-93
2022/01/01 03:51:59;;;;;;;22.52;7.40;;;;;;;;;;5054510;28;20029;-92
2022/01/01 03:54:24;;;;;;;20.77;6.57;;;;;;;;;;5053249;28;20021;-92
2022/01/01 03:56:49;;;;;;;20.50;6.93;;;;;;;;;;5054259;28;20449;-92
2022/01/01 03:59:14;;;;;;;17.92;7.00;;;;;;;;;;5055363;28;20013;-93
2022/01/01 04:01:40;;;;;;;22.35;7.00;;;;;;;;;;5073245;28;20024;-92
2022/01/01 04:04:05;;;;;;;19.20;6.03;;;;;;;;;;5073185;28;20031;-92
2022/01/01 04:06:30;;;;;;;21.67;7.40;;;;;;;;;;5073131;28;20027;-92
2022/01/01 04:08:55;;;;;;;17.48;6.63;;;;;;;;;;5073161;28;20063;-92
2022/01/01 04:11:21;;;;;;;19.30;6.22;;;;;;;;;;5073008;28;20115;-92
2022/01/01 04:13:47;;;;;;;20.27;5.63;;;;;;;;;;5073819;28;20025;-92
2022/01/01 04:16:12;;;;;;;16.55;5.53;;;;;;;;;;5073113;28;20102;-92
2022/01/01 04:18:40;;;;;;;27.98;6.88;;;;;;;;;;5072987;28;20033;-93
2022/01/01 04:21:06;;;;;;;19.27;6.25;;;;;;;;;;5073065;28;20020;-92
2022/01/01 04:23:32;;;;;;;18.25;5.80;;;;;;;;;;5073063;28;20248;-92
2022/01/01 04:25:57;;;;;;;15.90;5.60;;;;;;;;;;5072873;28;20077;-91
2022/01/01 04:28:22;;;;;;;16.10;5.38;;;;;;;;;;5073093;28;20028;-92
2022/01/01 04:30:47;;;;;;;17.10;5.22;;;;;;;;;;5075094;28;20025;-93
2022/01/01 04:33:13;;;;;;;20.00;5.70;;;;;;;;;;5076935;28;20121;-92
2022/01/01 04:35:38;;;;;;;21.38;5.28;;;;;;;;;;5076881;28;20460;-92
2022/01/01 04:38:03;;;;;;;20.17;5.55;;;;;;;;;;5077942;28;20542;-93
2022/01/01 04:40:29;;;;;;;21.90;5.68;;;;;;;;;;5076894;28;20025;-92
2022/01/01 04:42:54;;;;;;;17.42;5.93;;;;;;;;;;5076017;28;20078;-92
2022/01/01 04:45:19;;;;;;;17.10;4.93;;;;;;;;;;5057822;28;20025;-92
2022/01/01 04:47:44;;;;;;;21.77;5.13;;;;;;;;;;5056706;28;20444;-93
2022/01/01 04:50:10;;;;;;;16.33;5.05;;;;;;;;;;5056507;28;20071;-92
2022/01/01 04:52:35;;;;;;;19.27;4.38;;;;;;;;;;5057618;28;20013;-92
2022/01/01 04:55:00;;;;;;;21.15;4.38;;;;;;;;;;5056584;28;20024;-93
2022/01/01 04:57:30;;;;;;;15.27;4.68;;;;;;;;;;5056613;28;20021;-92
2022/01/01 04:59:55;;;;;;;17.73;5.68;;;;;;;;;;5056391;28;20017;-92
2022/01/01 05:02:20;;;;;;;16.80;4.72;;;;;;;;;;5056360;28;20031;-92
2022/01/01 05:04:46;;;;;;;18.92;4.88;;;;;;;;;;5057408;28;20017;-92
2022/01/01 05:07:11;;;;;;;13.02;4.55;;;;;;;;;;5057421;28;20021;-92
2022/01/01 05:09:36;;;;;;;11.63;4.28;;;;;;;;;;5056106;28;20024;-92
2022/01/01 05:12:01;;;;;;;20.20;4.78;;;;;;;;;;5056326;28;20021;-93
2022/01/01 05:14:27;;;;;;;15.05;4.65;;;;;;;;;;5057506;28;20028;-92
2022/01/01 05:16:52;;;;;;;16.83;5.30;;;;;;;;;;5056069;28;20135;-92
2022/01/01 05:19:19;;;;;;;16.40;4.45;;;;;;;;;;5057180;28;20024;-92
2022/01/01 05:21:44;;;;;;;11.27;4.00;;;;;;;;;;5057135;28;20082;-92
2022/01/01 05:24:12;;;;;;;16.13;5.68;;;;;;;;;;5055975;28;20025;-92
2022/01/01 05:26:37;;;;;;;15.75;4.35;;;;;;;;;;5055859;28;20029;-93
2022/01/01 05:29:03;;;;;;;13.95;4.28;;;;;;;;;;5055841;28;20108;-92
2022/01/01 05:31:33;;;;;;;14.25;4.75;;;;;;;;;;5055810;28;20021;-92
2022/01/01 05:33:58;;;;;;;13.43;4.57;;;;;;;;;;5055892;28;20043;-93
2022/01/01 05:36:23;;;;;;;16.92;4.65;;;;;;;;;;5055778;28;20021;-92
2022/01/01 05:38:49;;;;;;;13.73;4.90;;;;;;;;;;5055764;28;20079;-92
2022/01/01 05:41:14;;;;;;;13.80;4.53;;;;;;;;;;5055790;28;20025;-93
2022/01/01 05:43:39;;;;;;;15.20;4.95;;;;;;;;;;5063318;28;20017;-93
2022/01/01 05:46:04;;;;;;;12.18;5.15;;;;;;;;;;5076503;28;20032;-92
2022/01/01 05:48:29;;;;;;;19.27;5.05;;;;;;;;;;5075222;28;20376;-92
2022/01/01 05:50:55;;;;;;;10.02;3.88;;;;;;;;;;5075314;28;20552;-92
2022/01/01 05:53:20;;;;;;;15.73;5.38;;;;;;;;;;5075208;28;20027;-93
2022/01/01 05:55:46;;;;;;;21.10;4.88;;;;;;;;;;5075260;28;20009;-93
2022/01/01 05:58:11;;;;;;;18.80;4.47;;;;;;;;;;5076021;28;20055;-93
2022/01/01 06:00:37;;;;;;;10.40;4.55;;;;;;;;;;5074987;28;20115;-93
2022/01/01 06:03:02;;;;;;;18.55;4.32;;;;;;;;;;5076063;28;20016;-93
2022/01/01 06:05:28;;;;;;;12.23;3.88;;;;;;;;;;5074969;28;20034;-93
2022/01/01 06:07:54;;;;;;;12.00;3.80;;;;;;;;;;5056299;28;20116;-93
2022/01/01 06:10:19;;;;;;;13.80;3.97;;;;;;;;;;5076290;28;20016;-92
2022/01/01 06:12:45;;;;;;;14.07;3.92;;;;;;;;;;5075096;28;20020;-92
2022/01/01 06:15:10;;;;;;;13.65;4.10;;;;;;;;;;5076256;28;20048;-93
2022/01/01 06:17:35;;;;;;;11.32;4.05;;;;;;;;;;5074619;28;20016;-92
2022/01/01 06:20:00;;;;;;;12.52;3.65;;;;;;;;;;5074936;28;20017;-92
2022/01/01 06:22:25;;;;;;;13.00;3.88;;;;;;;;;;5075976;28;20412;-91
2022/01/01 06:24:51;;;;;;;12.32;4.43;;;;;;;;;;5068109;28;20031;-93
2022/01/01 06:27:16;;;;;;;16.88;4.13;;;;;;;;;;5054794;28;20389;-93
2022/01/01 06:29:41;;;;;;;10.85;4.70;;;;;;;;;;5054766;28;20024;-93
2022/01/01 06:32:06;;;;;;;17.63;4.70;;;;;;;;;;5054321;28;20071;-92
2022/01/01 06:34:31;;;;;;;13.20;5.00;;;;;;;;;;5054674;28;20055;-92
2022/01/01 06:36:57;;;;;;;19.52;5.38;;;;;;;;;;5054569;28;20048;-93
2022/01/01 06:39:22;;;;;;;14.43;4.60;;;;;;;;;;5055703;28;20100;-93
2022/01/01 06:41:47;;;;;;;15.25;4.75;;;;;;;;;;5054616;28;20017;-93
2022/01/01 06:44:12;;;;;;;16.08;4.43;;;;;;;;;;5054465;28;20017;-93
2022/01/01 06:46:38;;;;;;;20.10;4.88;;;;;;;;;;5054459;28;20491;-92
2022/01/01 06:49:03;;;;;;;11.05;4.30;;;;;;;;;;5055490;28;20503;-92
2022/01/01 06:51:28;;;;;;;14.75;5.18;;;;;;;;;;5053849;28;20112;-93
2022/01/01 06:53:53;;;;;;;16.63;4.75;;;;;;;;;;5053654;28;20086;-93
2022/01/01 06:56:18;;;;;;;16.27;4.97;;;;;;;;;;5054196;28;20017;-93
2022/01/01 06:58:44;;;;;;;15.80;5.35;;;;;;;;;;5054205;28;20028;-92
2022/01/01 07:01:10;;;;;;;15.80;5.03;;;;;;;;;;5054436;28;20025;-93
2022/01/01 07:03:35;;;;;;;21.23;6.10;;;;;;;;;;5054093;28;20039;-92
2022/01/01 07:06:00;;;;;;;15.82;5.07;;;;;;;;;;5060502;28;20066;-92
2022/01/01 07:08:25;;;;;;;13.40;5.40;;;;;;;;;;5074007;28;20024;-93
2022/01/01 07:10:51;;;;;;;13.65;5.50;;;;;;;;;;5073935;28;20023;-93
2022/01/01 07:13:16;;;;;;;13.57;5.32;;;;;;;;;;5073949;28;20017;-93
2022/01/01 07:15:42;;;;;;;18.23;5.10;;;;;;;;;;5072669;28;20016;-93
2022/01/01 07:18:07;;;;;;;12.43;4.82;;;;;;;;;;5053958;28;20032;-93
2022/01/01 07:20:32;;;;;;;14.25;4.75;;;;;;;;;;5053802;28;20021;-92
2022/01/01 07:22:57;;;;;;;11.88;4.65;;;;;;;;;;5054861;28;20024;-93
2022/01/01 07:25:23;;;;;;;9.27;4.53;;;;;;;;;;5053742;28;20032;-93
2022/01/01 07:27:48;;;;;;;17.40;5.63;;;;;;;;;;5054801;28;20103;-93
2022/01/01 07:30:13;;;;;;;9.55;4.43;;;;;;;;;;5053931;28;20052;-93
2022/01/01 07:32:39;;;;;;;12.73;5.20;;;;;;;;;;5053648;28;20017;-92
2022/01/01 07:35:05;;;;;;;12.88;5.13;;;;;;;;;;5053706;28;20400;-93
2022/01/01 07:37:30;;;;;;;16.90;5.40;;;;;;;;;;5053336;28;20024;-93
2022/01/01 07:39:55;;;;;;;20.58;5.38;;;;;;;;;;5054596;28;20526;-93
2022/01/01 07:42:20;;;;;;;17.48;6.38;;;;;;;;;;5054654;28;20066;-92
2022/01/01 07:44:45;;;;;;;14.88;5.93;;;;;;;;;;5053195;28;20048;-92
2022/01/01 07:47:11;;;;;;;15.23;5.63;;;;;;;;;;5053433;28;20016;-93
2022/01/01 07:49:36;;;;;;;10.63;5.47;;;;;;;;;;5053345;28;20515;-93
2022/01/01 07:52:02;;;;;;;16.88;5.60;;;;;;;;;;5054436;28;20066;-92
2022/01/01 07:54:27;;;;;;;21.40;6.50;;;;;;;;;;5053121;28;20025;-92
2022/01/01 07:56:52;;;;;;;15.75;5.47;;;;;;;;;;5053271;28;20056;-93
2022/01/01 07:59:17;;;;;;;13.88;4.93;;;;;;;;;;5053208;28;20013;-93
2022/01/01 08:01:43;;;;;;;18.63;5.30;;;;;;;;;;5052848;28;20465;-93
2022/01/01 08:04:08;;;;;;;15.88;4.85;;;;;;;;;;5053242;28;20019;-93
2022/01/01 08:06:34;;;;;;;13.90;5.68;;;;;;;;;;5053287;28;20055;-93
2022/01/01 08:08:59;;;;;;;12.30;5.20;;;;;;;;;;5054151;28;20435;-93
2022/01/01 08:11:24;;;;;;;17.65;5.40;;;;;;;;;;5054252;28;20025;-94
2022/01/01 08:13:50;;;;;;;10.57;5.75;;;;;;;;;;5054158;28;20013;-94
2022/01/01 08:16:15;;;;;;;12.85;5.40;;;;;;;;;;5054174;28;20016;-94
2022/01/01 08:18:40;;;;;;;16.60;5.80;;;;;;;;;;5054134;28;20028;-93
2022/01/01 08:21:06;;;;;;;11.57;5.13;;;;;;;;;;5052998;28;20021;-93
2022/01/01 08:23:31;;;;;;;12.07;5.82;;;;;;;;;;5053071;28;20028;-94
2022/01/01 08:25:58;;;;;;;12.82;5.63;;;;;;;;;;5054034;28;20044;-93
2022/01/01 08:28:23;;;;;;;15.80;5.22;;;;;;;;;;5054102;28;20040;-94
2022/01/01 08:30:48;;;;;;;16.05;5.63;;;;;;;;;;5052872;28;20025;-93
2022/01/01 08:33:15;;;;;;;15.30;6.07;;;;;;;;;;5053995;28;20017;-93
2022/01/01 08:35:40;;;;;;;13.27;5.32;;;;;;;;;;5053978;28;20028;-93
2022/01/01 08:38:05;;;;;;;15.30;5.78;;;;;;;;;;5053896;28;20461;-93
2022/01/01 08:40:31;;;;;;;26.65;6.22;;;;;;;;;;5053956;28;20405;-93
2022/01/01 08:42:56;;;;;;;16.67;6.00;;;;;;;;;;5052896;28;20049;-94
2022/01/01 08:45:22;;;;;;;13.38;6.13;;;;;;;;;;5052949;28;20040;-93
2022/01/01 08:47:47;;;;;;;12.82;6.15;;;;;;;;;;5052635;28;20090;-93
2022/01/01 08:50:13;;;;;;;19.50;6.47;;;;;;;;;;5052571;28;20119;-93
2022/01/01 08:52:39;;;;;;;16.63;6.40;;;;;;;;;;5052834;28;20074;-94
2022/01/01 08:55:04;;;;;;;13.32;6.18;;;;;;;;;;5085711;28;20067;-93
2022/01/01 08:57:32;;;;;;;17.30;5.47;;;;;;;;;;5052606;28;20032;-93
2022/01/01 08:59:58;;;;;;;11.35;5.28;;;;;;;;;;5052729;28;20045;-94
2022/01/01 09:02:23;;;;;;;12.98;4.55;;;;;;;;;;5052672;28;20021;-93
2022/01/01 09:04:49;;;;;;;17.33;5.30;;;;;;;;;;5052661;28;20031;-93
2022/01/01 09:07:14;;;;;;;11.85;5.68;;;;;;;;;;5052627;28;20048;-94
2022/01/01 09:09:40;;;;;;;11.50;4.80;;;;;;;;;;5053518;28;20490;-93
2022/01/01 09:12:06;;;;;;;18.60;5.13;;;;;;;;;;5052569;28;20021;-93
2022/01/01 09:14:32;;;;;;;12.85;5.88;;;;;;;;;;5052542;28;20063;-94
2022/01/01 09:16:57;;;;;;;18.85;6.10;;;;;;;;;;5053660;28;20021;-95
2022/01/01 09:19:22;;;;;;;17.08;5.35;;;;;;;;;;5056072;28;20029;-94
2022/01/01 09:21:47;;;;;;;15.18;6.35;;;;;;;;;;5057167;28;20028;-94
2022/01/01 09:24:14;;;;;;;15.00;6.13;;;;;;;;;;5056083;28;20013;-93
2022/01/01 09:26:39;;;;;;;19.25;6.55;;;;;;;;;;5056944;28;20116;-93
2022/01/01 09:29:04;;;;;;;15.98;6.50;;;;;;;;;;5056060;28;20055;-93
2022/01/01 09:31:30;;;;;;;14.82;5.47;;;;;;;;;;5054917;28;20529;-93
2022/01/01 09:33:55;;;;;;;12.40;5.07;;;;;;;;;;5056803;28;20547;-94
2022/01/01 09:36:21;;;;;;;14.75;5.60;;;;;;;;;;5055716;28;20017;-93
2022/01/01 09:38:46;;;;;;;13.15;5.78;;;;;;;;;;5055525;28;20024;-93
2022/01/01 09:41:13;;;;;;;11.82;4.53;;;;;;;;;;5055736;28;20024;-93
2022/01/01 09:43:38;;;;;;;13.45;4.82;;;;;;;;;;5055721;28;20116;-93
2022/01/01 09:46:03;;;;;;;7.88;4.10;;;;;;;;;;5055549;28;20056;-94
2022/01/01 09:48:29;;;;;;;9.35;3.90;;;;;;;;;;5055538;28;20032;-94
2022/01/01 09:50:56;;;;;;;12.38;4.10;;;;;;;;;;5056560;28;20028;-93
2022/01/01 09:53:24;;;;;;;9.32;4.20;;;;;;;;;;5055449;28;20013;-94
2022/01/01 09:55:49;;;;;;;9.88;3.63;;;;;;;;;;5056423;28;20063;-94
2022/01/01 09:58:14;;;;;;;13.23;4.30;;;;;;;;;;5055284;28;20453;-94
2022/01/01 10:00:39;;;;;;;15.25;5.03;;;;;;;;;;5056461;28;20518;-94
2022/01/01 10:03:04;;;;;;;9.63;3.88;;;;;;;;;;5056389;28;20020;-93
2022/01/01 10:05:30;;;;;;;9.43;4.00;;;;;;;;;;5057053;28;20028;-93
2022/01/01 10:07:59;;;;;;;9.82;3.40;;;;;;;;;;5063197;28;20115;-93
2022/01/01 10:10:25;;;;;;;9.63;3.97;;;;;;;;;;5076127;28;20460;-93
2022/01/01 10:12:51;;;;;;;10.25;3.90;;;;;;;;;;5056638;28;20465;-94
2022/01/01 10:15:17;;;;;;;11.20;4.07;;;;;;;;;;5057504;28;20028;-94
2022/01/01 10:17:42;;;;;;;14.00;4.80;;;;;;;;;;5055779;28;20033;-94
2022/01/01 10:20:07;;;;;;;13.98;4.55;;;;;;;;;;5054839;28;20370;-92
2022/01/01 10:22:34;;;;;;;11.35;4.20;;;;;;;;;;5055931;28;20025;-94
2022/01/01 10:27:57;;;;;;;7.78;3.53;;;;;;;;;;5055300;28;20515;-94
2022/01/01 10:30:28;;;;;;;12.02;3.53;;;;;;;;;;5055758;28;20465;-95
2022/01/01 10:33:00;;;;;;;12.05;3.47;;;;;;;;;;5054827;28;20029;-94
2022/01/01 10:35:25;;;;;;;11.27;3.53;;;;;;;;;;5054793;28;20071;-94
2022/01/01 10:37:50;;;;;;;7.60;3.72;;;;;;;;;;5054104;28;20408;-93
2022/01/01 10:40:23;;;;;;;10.95;3.05;;;;;;;;;;5054505;28;20028;-94
2022/01/01 10:42:50;;;;;;;6.88;3.38;;;;;;;;;;5054663;28;20385;-94
2022/01/01 10:45:27;;;;;;;9.85;3.35;;;;;;;;;;5055620;28;20060;-95
2022/01/01 10:48:03;;;;;;;7.80;3.60;;;;;;;;;;5069527;28;20028;-94
2022/01/01 10:50:34;;;;;;;7.40;3.13;;;;;;;;;;5035625;28;20459;-93
2022/01/01 10:53:10;;;;;;;8.63;3.90;;;;;;;;;;5034392;28;20105;-93
2022/01/01 10:55:39;;;;;;;7.57;2.33;;;;;;;;;;5079019;28;20070;-92
2022/01/01 10:58:04;;;;;;;4.88;2.47;;;;;;;;;;5054186;28;20017;-92
2022/01/01 11:00:29;;;;;;;7.75;3.13;;;;;;;;;;5054045;28;20491;-92
2022/01/01 11:02:56;;;;;;;7.32;2.80;;;;;;;;;;5054085;28;20025;-92
2022/01/01 11:05:34;;;;;;;10.50;2.10;;;;;;;;;;5054088;28;20465;-92
2022/01/01 11:08:00;;;;;;;5.03;2.15;;;;;;;;;;5054042;28;20083;-93
2022/01/01 11:10:26;;;;;;;8.68;2.60;;;;;;;;;;5053872;28;20029;-93
2022/01/01 11:12:51;;;;;;;7.30;2.20;;;;;;;;;;5054016;28;20024;-94
2022/01/01 11:15:17;;;;;;;7.07;2.70;;;;;;;;;;5052086;28;20017;-94
2022/01/01 11:17:43;;;;;;;7.57;2.67;;;;;;;;;;5087324;28;20468;-94
2022/01/01 11:20:08;;;;;;;5.50;2.70;;;;;;;;;;5054880;28;20024;-94
2022/01/01 11:22:33;;;;;;;7.05;2.15;;;;;;;;;;5053841;28;20098;-95
2022/01/01 11:24:59;;;;;;;6.30;2.50;;;;;;;;;;5057647;28;20029;-93
2022/01/01 11:27:26;;;;;;;6.70;2.47;;;;;;;;;;5087136;28;20056;-94
2022/01/01 11:29:52;;;;;;;9.80;2.97;;;;;;;;;;5087559;28;20364;-93
2022/01/01 11:32:38;;;;;;;9.10;2.75;;;;;;;;;;5054439;28;20016;-93
2022/01/01 11:35:05;;;;;;;8.88;2.05;;;;;;;;;;5046316;28;20037;-94
2022/01/01 11:37:48;;;;;;;8.55;2.70;;;;;;;;;;5054648;28;20534;-93
2022/01/01 11:40:16;;;;;;;2.25;1.05;;;;;;;;;;5061982;28;20049;-93
2022/01/01 11:42:45;;;;;;;5.07;2.20;;;;;;;;;;5068562;28;20025;-95
2022/01/01 11:45:12;;;;;;;6.97;2.78;;;;;;;;;;5034370;28;20021;-95
2022/01/01 11:47:38;;;;;;;3.65;1.90;;;;;;;;;;5054102;28;20021;-95
2022/01/01 11:50:04;;;;;;;6.22;2.33;;;;;;;;;;5057610;28;20036;-94
2022/01/01 11:52:34;;;;;;;9.57;2.50;;;;;;;;;;5053234;28;20103;-94
2022/01/01 11:55:00;;;;;;;5.03;2.10;;;;;;;;;;5054696;28;20032;-93
2022/01/01 11:57:27;;;;;;;4.82;1.75;;;;;;;;;;5053302;28;20458;-95
2022/01/01 12:00:00;;;;;;;5.20;2.30;;;;;;;;;;5053295;28;20033;-96
2022/01/01 12:02:26;;;;;;;4.22;1.90;;;;;;;;;;5053296;28;20024;-95
2022/01/01 12:04:54;;;;;;;6.13;2.25;;;;;;;;;;5053630;28;20035;-95
2022/01/01 12:07:19;;;;;;;4.68;1.63;;;;;;;;;;5057837;28;20017;-94
2022/01/01 12:10:02;;;;;;;5.65;1.77;;;;;;;;;;5054139;28;20025;-95
2022/01/01 12:12:48;;;;;;;6.28;2.20;;;;;;;;;;5053027;28;20024;-94
2022/01/01 12:15:16;;;;;;;8.52;2.45;;;;;;;;;;5053086;28;20043;-93
2022/01/01 12:17:42;;;;;;;7.30;1.98;;;;;;;;;;5052976;28;20021;-93
2022/01/01 12:20:21;;;;;;;5.35;1.92;;;;;;;;;;5086929;28;20031;-93
2022/01/01 12:22:46;;;;;;;6.07;1.90;;;;;;;;;;5036200;28;20025;-93
2022/01/01 12:25:15;;;;;;;7.47;1.75;;;;;;;;;;5054082;28;20266;-93
2022/01/01 12:27:42;;;;;;;6.25;2.50;;;;;;;;;;5052866;28;20033;-93
2022/01/01 12:30:08;;;;;;;4.03;1.65;;;;;;;;;;5052984;28;20032;-93
2022/01/01 12:32:37;;;;;;;6.97;2.10;;;;;;;;;;5053468;28;20480;-93
2022/01/01 12:35:09;;;;;;;5.03;1.42;;;;;;;;;;5053000;28;20053;-93
2022/01/01 12:37:36;;;;;;;6.88;1.75;;;;;;;;;;5053874;28;20461;-94
2022/01/01 12:40:04;;;;;;;4.93;1.88;;;;;;;;;;5053956;28;20049;-92
2022/01/01 12:42:30;;;;;;;5.57;1.75;;;;;;;;;;5053991;28;20013;-93
2022/01/01 12:44:59;;;;;;;4.47;1.58;;;;;;;;;;5052672;28;20536;-94
2022/01/01 12:47:27;;;;;;;3.65;1.50;;;;;;;;;;5052800;28;20025;-93
2022/01/01 12:49:52;;;;;;;2.17;1.23;;;;;;;;;;5052776;28;20084;-93
2022/01/01 12:52:22;;;;;;;4.15;0.85;;;;;;;;;;5054877;28;20380;-93
2022/01/01 12:54:49;;;;;;;6.35;1.60;;;;;;;;;;5056475;28;20540;-93
2022/01/01 12:57:14;;;;;;;5.53;1.60;;;;;;;;;;5058093;28;20025;-93
2022/01/01 12:59:42;;;;;;;3.35;1.42;;;;;;;;;;5056529;28;20036;-92
2022/01/01 13:02:08;;;;;;;4.68;1.40;;;;;;;;;;5056520;28;20464;-92
2022/01/01 13:04:34;;;;;;;5.93;1.30;;;;;;;;;;5057650;28;20044;-93
2022/01/01 13:07:00;;;;;;;4.22;1.27;;;;;;;;;;5067245;28;20031;-93
2022/01/01 13:09:27;;;;;;;1.85;1.13;;;;;;;;;;5056257;28;20108;-93
2022/01/01 13:11:57;;;;;;;1.83;0.90;;;;;;;;;;5057388;28;20021;-93
2022/01/01 13:14:22;;;;;;;5.65;1.23;;;;;;;;;;5056088;28;20052;-93
2022/01/01 13:16:47;;;;;;;2.97;1.10;;;;;;;;;;5056070;28;20092;-93
2022/01/01 13:19:12;;;;;;;4.93;1.52;;;;;;;;;;5089829;28;20047;-93
2022/01/01 13:21:38;;;;;;;3.35;1.30;;;;;;;;;;5065368;28;20032;-93
2022/01/01 13:24:03;;;;;;;1.75;0.68;;;;;;;;;;5076121;28;20046;-93
2022/01/01 13:26:28;;;;;;;2.60;1.08;;;;;;;;;;5075992;28;20041;-93
2022/01/01 13:28:54;;;;;;;2.35;1.20;;;;;;;;;;5075976;28;20062;-93
2022/01/01 13:31:20;;;;;;;4.63;1.45;;;;;;;;;;5070535;28;20111;-93
2022/01/01 13:33:45;;;;;;;4.50;1.23;;;;;;;;;;5089433;28;20074;-93
2022/01/01 13:36:11;;;;;;;3.78;1.30;;;;;;;;;;5056921;28;20503;-94
2022/01/01 13:38:36;;;;;;;3.17;0.82;;;;;;;;;;5056966;28;20465;-93
2022/01/01 13:41:04;;;;;;;4.75;1.25;;;;;;;;;;5056849;28;20021;-93
2022/01/01 13:43:36;;;;;;;2.30;1.20;;;;;;;;;;5096409;28;20466;-94
2022/01/01 13:46:01;;;;;;;;;;;;;;;;;;5075990;28;20047;-93
2022/01/01 13:48:26;;;;;;;1.88;1.05;;;;;;;;;;5075791;28;19958;-93
2022/01/01 13:50:51;;;;;;;3.67;1.10;;;;;;;;;;5075517;28;20265;-93
2022/01/01 13:53:17;;;;;;;6.78;1.55;;;;;;;;;;5059667;28;20107;-93
2022/01/01 13:55:55;;;;;;;4.95;1.25;;;;;;;;;;5056571;28;20029;-93
2022/01/01 13:58:20;;;;;;;3.30;1.20;;;;;;;;;;5055543;28;20025;-93
2022/01/01 14:00:49;;;;;;;4.57;1.33;;;;;;;;;;5058870;28;20047;-93
2022/01/01 14:03:15;;;;;;;3.95;1.55;;;;;;;;;;5075151;28;20119;-93
2022/01/01 14:05:41;;;;;;;2.58;1.02;;;;;;;;;;5075431;28;20048;-93
2022/01/01 14:08:12;;;;;;;2.25;0.90;;;;;;;;;;5076299;28;20078;-93
2022/01/01 14:10:38;;;;;;;3.97;0.93;;;;;;;;;;5075166;28;20074;-93
2022/01/01 14:13:03;;;;;;;3.15;1.10;;;;;;;;;;5075096;28;20024;-93
2022/01/01 14:15:28;;;;;;;4.95;1.10;;;;;;;;;;5059267;28;20017;-93
2022/01/01 14:17:57;;;;;;;1.45;0.80;;;;;;;;;;5056208;28;20029;-93
2022/01/01 14:20:30;;;;;;;1.90;1.08;;;;;;;;;;5055203;28;20052;-93
2022/01/01 14:22:55;;;;;;;3.33;1.00;;;;;;;;;;5055031;28;20021;-94
2022/01/01 14:25:21;;;;;;;4.68;1.40;;;;;;;;;;5054912;28;20090;-94
2022/01/01 14:27:46;;;;;;;5.18;1.20;;;;;;;;;;5054777;28;20021;-94
2022/01/01 14:30:11;;;;;;;1.00;0.57;;;;;;;;;;5054605;28;20114;-93
2022/01/01 14:32:37;;;;;;;1.65;1.00;;;;;;;;;;5055773;28;20400;-93
2022/01/01 14:35:03;;;;;;;2.50;0.77;;;;;;;;;;5055909;28;20092;-93